Aérodrome :
LOGIN :

S'inscrire | Disclaimer

   EN    FR    IT 

 










Légende :    VFR   VFR Marginal   IFR   IFR Intensif   IFR Très Intensif
Visi : 
Plafond : 
>= 8 km
>= 3000ft
5 à 8 km
1000 à 3000 ft
1500m à 5 km
500 à 1000 ft
800 à 1500m
200 à 500 ft
< 800m
< 200 ft
Symboles :   Orages  Brouillard  Fortes neiges  Fortes précipitations  Vent > 20 kt
SIGMETs :   Divers  Orages  Givrage  Turbulence  Onde Orograph.  Cendres Volcan.






- Altitude de l'aérodrome : 1910 ft
- Code IATA : RDZ


LFCR - Rodez

DERNIER METAR :
  • 102030Z AUTO 09005KT 060V120 CAVOK 20/16 Q1017 NOSIG

METARs EXPIRÉS :
  • 102000Z AUTO 12011KT 9999 ///CB 20/16 Q1017 BECMG NSC
  • 101930Z AUTO 14017KT 9999 -RA VCTS FEW026/// SCT066/// BKN130/// ///CB 20/17 Q1017 BECMG VRB03KT NSW NSC
  • 101900Z AUTO 08011KT 030V130 9999 -RA VCTS ///CB 20/18 Q1017 BECMG NSW NSC
  • 101830Z AUTO 36008KT 330V070 9999 VCTS ///CB 21/18 Q1018 BECMG NSW NSC
  • 101800Z AUTO 07011KT 350V100 9999 VCTS ///CB 21/18 Q1017 BECMG NSW

TAF AMD TAF LFCR
Valide du 10 à 20h jusqu'au 11 à 18h UTC


102007Z 1020/1118 10012KT 9999 FEW060CB
PROB40
TEMPO 1020/1021 TS
BECMG 1021/1023 VRB03KT CAVOK
BECMG 1113/1115 21008KT



MET'MAP, la Météo Aéronautique d'un coup d'oeil ! - Copyright ORBIFLY Décembre 2007 - Disclaimer

ORBIFLY MET'MAP TEAM :

Programmation & Développement : Alexandra Zaïnal
Sur une idée originale de : Baudouin d'Aumeries
Assistance à la programmation : Marc-Olivier Méhu
Soutien technique & logistique : Manuel Goepfert

Contact : metmap@orbifly.com




SOURCES & CREDITS :

   NOAA